Time;durP1;ratioP1;P1;durP2;ratioP2;P2;SDS_P1;SDS_P2;PMS_P1;PMS_P2;Temp;Humidity;BMP_temperature;BMP_pressure;BME280_temperature;BME280_humidity;BME280_pressure;Samples;Min_cycle;Max_cycle;Signal;HPM_P1;HPM_P2
2021/09/16 00:00:33;;;;;;;12.95;10.93;;;19.70;99.90;;;;;;5012923;28;20030;-55
2021/09/16 00:02:59;;;;;;;14.43;11.48;;;19.70;99.90;;;;;;5012493;28;20092;-57
2021/09/16 00:05:24;;;;;;;15.65;12.82;;;19.60;99.90;;;;;;5013075;28;20034;-54
2021/09/16 00:07:50;;;;;;;12.98;10.90;;;19.60;99.90;;;;;;5012690;28;20037;-56
2021/09/16 00:10:16;;;;;;;13.48;11.45;;;19.60;99.90;;;;;;5013114;28;20026;-54
2021/09/16 00:12:42;;;;;;;13.93;11.68;;;19.70;99.90;;;;;;5012697;28;20044;-50
2021/09/16 00:15:10;;;;;;;11.52;10.13;;;19.70;99.90;;;;;;5012668;28;20025;-49
2021/09/16 00:17:35;;;;;;;12.60;10.43;;;19.70;99.90;;;;;;5012686;28;20072;-52
2021/09/16 00:20:02;;;;;;;14.00;11.13;;;19.70;99.90;;;;;;5012617;28;20097;-53
2021/09/16 00:22:28;;;;;;;14.85;12.02;;;19.80;99.90;;;;;;5012208;28;20030;-53
2021/09/16 00:24:54;;;;;;;12.50;10.63;;;19.70;99.90;;;;;;5012494;28;20517;-52
2021/09/16 00:27:19;;;;;;;12.50;10.82;;;19.80;99.90;;;;;;5012707;28;20396;-53
2021/09/16 00:29:45;;;;;;;13.60;11.38;;;19.70;99.90;;;;;;5012148;28;20477;-57
2021/09/16 00:32:11;;;;;;;13.45;11.32;;;19.70;99.90;;;;;;5012311;28;20498;-55
2021/09/16 00:34:36;;;;;;;12.25;10.98;;;19.70;99.90;;;;;;5012429;28;20485;-53
2021/09/16 00:37:02;;;;;;;13.63;12.07;;;19.80;99.90;;;;;;5012466;28;20112;-55
2021/09/16 00:39:28;;;;;;;14.88;11.52;;;19.90;99.90;;;;;;5011344;28;20085;-54
2021/09/16 00:41:54;;;;;;;14.55;13.05;;;19.70;99.90;;;;;;5016214;28;20038;-57
2021/09/16 00:44:19;;;;;;;17.77;13.45;;;19.80;99.90;;;;;;5015817;28;20032;-51
2021/09/16 00:46:45;;;;;;;15.27;13.77;;;19.60;99.90;;;;;;5014960;28;20174;-53
2021/09/16 00:49:10;;;;;;;18.33;14.90;;;19.60;99.90;;;;;;5015930;28;20037;-55
2021/09/16 00:51:38;;;;;;;18.85;16.77;;;19.50;99.90;;;;;;5016021;28;20679;-53
2021/09/16 00:54:04;;;;;;;20.58;17.73;;;19.50;99.90;;;;;;5015652;28;20033;-54
2021/09/16 00:56:31;;;;;;;22.35;18.83;;;19.40;99.90;;;;;;5016078;28;20478;-53
2021/09/16 00:58:59;;;;;;;22.33;18.95;;;19.40;99.90;;;;;;5015865;28;20121;-53
2021/09/16 01:01:25;;;;;;;24.25;21.08;;;19.40;99.90;;;;;;5015505;28;20042;-56
2021/09/16 01:03:53;;;;;;;28.33;22.35;;;19.20;99.90;;;;;;5015364;28;20030;-54
2021/09/16 01:06:19;;;;;;;27.83;22.70;;;19.10;99.90;;;;;;5016151;28;20037;-51
2021/09/16 01:08:45;;;;;;;28.92;24.08;;;19.10;99.90;;;;;;5015944;28;20042;-54
2021/09/16 01:11:11;;;;;;;27.38;24.48;;;19.10;99.90;;;;;;5014561;28;20386;-53
2021/09/16 01:13:37;;;;;;;33.53;25.98;;;19.10;99.90;;;;;;5014496;28;20050;-53
2021/09/16 01:16:02;;;;;;;33.10;25.23;;;19.10;99.90;;;;;;5015882;28;20080;-53
2021/09/16 01:18:28;;;;;;;32.38;26.70;;;19.00;99.90;;;;;;5014487;28;20041;-55
2021/09/16 01:20:54;;;;;;;29.13;25.52;;;19.10;99.90;;;;;;5015716;28;20037;-52
2021/09/16 01:23:22;;;;;;;30.38;26.60;;;19.10;99.90;;;;;;5014624;28;20061;-58
2021/09/16 01:25:47;;;;;;;33.30;27.30;;;19.00;99.90;;;;;;5015311;28;20513;-57
2021/09/16 01:28:13;;;;;;;33.95;28.60;;;18.80;99.90;;;;;;5014959;28;20061;-54
2021/09/16 01:30:39;;;;;;;36.92;28.83;;;18.80;99.90;;;;;;5015425;28;20057;-51
2021/09/16 01:33:04;;;;;;;35.58;30.52;;;18.50;99.90;;;;;;5031666;28;20063;-54
2021/09/16 01:35:30;;;;;;;39.45;31.42;;;18.40;99.90;;;;;;5035122;28;20037;-56
2021/09/16 01:37:57;;;;;;;43.40;32.13;;;18.40;99.90;;;;;;5034620;28;20030;-50
2021/09/16 01:40:23;;;;;;;42.28;31.83;;;18.40;99.90;;;;;;5034889;28;20038;-54
2021/09/16 01:42:49;;;;;;;36.38;30.73;;;18.40;99.90;;;;;;5034940;28;20540;-53
2021/09/16 01:45:21;;;;;;;37.88;31.35;;;18.40;99.90;;;;;;5035067;28;20041;-55
2021/09/16 01:47:48;;;;;;;39.28;32.10;;;18.50;99.90;;;;;;5034981;28;20120;-53
2021/09/16 01:50:15;;;;;;;42.95;34.20;;;18.30;99.90;;;;;;5035028;28;20087;-55
2021/09/16 01:52:41;;;;;;;43.25;31.27;;;18.20;99.90;;;;;;5034102;28;20029;-53
2021/09/16 01:55:08;;;;;;;41.45;31.98;;;18.30;99.90;;;;;;5034660;28;20025;-52
2021/09/16 01:57:34;;;;;;;38.33;30.92;;;18.40;99.90;;;;;;5034061;28;20482;-52
2021/09/16 01:59:59;;;;;;;38.72;31.83;;;18.50;99.90;;;;;;5033994;28;20045;-54
2021/09/16 02:02:25;;;;;;;37.70;30.48;;;18.70;99.90;;;;;;5034103;28;20142;-55
2021/09/16 02:04:51;;;;;;;38.60;32.90;;;18.70;99.90;;;;;;5021649;28;20034;-56
2021/09/16 02:07:16;;;;;;;39.15;32.17;;;18.70;99.90;;;;;;5014753;28;20485;-54
2021/09/16 02:09:42;;;;;;;41.47;33.50;;;18.50;99.90;;;;;;5014800;28;20049;-56
2021/09/16 02:12:08;;;;;;;40.08;32.20;;;18.40;99.90;;;;;;5014852;28;20076;-55
2021/09/16 02:14:34;;;;;;;40.72;31.92;;;18.50;99.90;;;;;;5014696;28;20044;-53
2021/09/16 02:17:00;;;;;;;38.95;33.22;;;18.50;99.90;;;;;;5014393;28;20026;-56
2021/09/16 02:19:25;;;;;;;41.90;32.15;;;18.60;99.90;;;;;;5014434;28;20432;-58
2021/09/16 02:21:51;;;;;;;42.50;32.30;;;18.50;99.90;;;;;;5014197;28;20042;-53
2021/09/16 02:24:16;;;;;;;41.45;32.00;;;18.60;99.90;;;;;;5014029;28;20033;-56
2021/09/16 02:26:42;;;;;;;38.08;31.15;;;18.50;99.90;;;;;;5014097;28;20030;-51
2021/09/16 02:29:08;;;;;;;43.83;34.13;;;18.60;99.90;;;;;;5014162;28;20411;-55
2021/09/16 02:31:33;;;;;;;40.22;33.15;;;18.60;99.90;;;;;;5013577;28;20394;-59
2021/09/16 02:33:59;;;;;;;41.50;32.55;;;18.50;99.90;;;;;;5013767;28;20037;-52
2021/09/16 02:36:25;;;;;;;39.72;32.40;;;18.40;99.90;;;;;;5012545;28;20034;-56
2021/09/16 02:38:51;;;;;;;39.20;30.90;;;18.50;99.90;;;;;;5013666;28;20553;-53
2021/09/16 02:41:17;;;;;;;38.50;32.83;;;18.60;99.90;;;;;;5013877;28;20180;-55
2021/09/16 02:43:42;;;;;;;36.25;30.83;;;18.50;99.90;;;;;;5013143;28;20034;-54
2021/09/16 02:46:08;;;;;;;40.08;31.73;;;18.60;99.90;;;;;;5013940;28;20414;-53
2021/09/16 02:48:33;;;;;;;37.78;32.38;;;18.50;99.90;;;;;;5013776;28;20121;-55
2021/09/16 02:50:59;;;;;;;38.70;32.50;;;18.50;99.90;;;;;;5013818;28;20034;-56
2021/09/16 02:53:25;;;;;;;39.72;30.88;;;18.50;99.90;;;;;;5014152;28;20383;-58
2021/09/16 02:55:50;;;;;;;38.08;31.20;;;18.50;99.90;;;;;;5014237;28;20116;-55
2021/09/16 02:58:16;;;;;;;39.25;32.03;;;18.50;99.90;;;;;;5014525;28;20090;-59
2021/09/16 03:00:41;;;;;;;38.17;31.42;;;18.40;99.90;;;;;;5014313;28;20037;-53
2021/09/16 03:03:07;;;;;;;37.47;31.00;;;18.40;99.90;;;;;;5013259;28;20052;-50
2021/09/16 03:05:33;;;;;;;41.67;32.58;;;18.40;99.90;;;;;;5013718;28;20121;-54
2021/09/16 03:07:59;;;;;;;35.90;31.00;;;18.40;99.90;;;;;;5013777;28;20040;-57
2021/09/16 03:10:25;;;;;;;40.72;31.55;;;18.30;99.90;;;;;;5013529;28;20038;-57
2021/09/16 03:12:50;;;;;;;41.15;32.05;;;18.20;99.90;;;;;;5013468;28;20033;-56
2021/09/16 03:15:16;;;;;;;41.05;32.60;;;18.20;99.90;;;;;;5013037;28;20113;-55
2021/09/16 03:17:42;;;;;;;43.05;33.05;;;18.30;99.90;;;;;;5013528;28;20030;-53
2021/09/16 03:20:08;;;;;;;39.72;30.65;;;18.30;99.90;;;;;;5013023;28;20156;-51
2021/09/16 03:22:34;;;;;;;37.33;31.00;;;18.40;99.90;;;;;;5013183;28;20045;-55
2021/09/16 03:24:59;;;;;;;39.08;31.10;;;18.50;99.90;;;;;;5013153;28;20030;-55
2021/09/16 03:27:25;;;;;;;39.03;30.67;;;18.30;99.90;;;;;;5012887;28;20081;-55
2021/09/16 03:29:50;;;;;;;41.97;32.30;;;18.40;99.90;;;;;;5013331;28;20045;-54
2021/09/16 03:32:16;;;;;;;40.85;33.22;;;18.30;99.90;;;;;;5013213;28;20038;-54
2021/09/16 03:34:41;;;;;;;36.67;30.80;;;18.20;99.90;;;;;;5012956;28;20034;-52
2021/09/16 03:37:07;;;;;;;38.50;30.50;;;18.30;99.90;;;;;;5013177;28;20457;-56
2021/09/16 03:39:33;;;;;;;40.45;31.83;;;18.30;99.90;;;;;;5012263;28;20044;-54
2021/09/16 03:41:58;;;;;;;36.88;29.52;;;18.30;99.90;;;;;;5012802;28;20026;-55
2021/09/16 03:44:24;;;;;;;40.00;29.80;;;18.40;99.90;;;;;;5012852;28;20468;-56
2021/09/16 03:46:51;;;;;;;40.72;30.52;;;18.40;99.90;;;;;;5013193;28;20547;-57
2021/09/16 03:49:17;;;;;;;38.90;31.23;;;18.40;99.90;;;;;;5013342;28;20030;-56
2021/09/16 03:51:43;;;;;;;38.55;30.85;;;18.20;99.90;;;;;;5012429;28;20022;-55
2021/09/16 03:54:08;;;;;;;35.25;30.33;;;17.90;99.90;;;;;;5012757;28;20501;-52
2021/09/16 03:56:34;;;;;;;38.75;29.98;;;17.90;99.90;;;;;;5012831;28;20037;-52
2021/09/16 03:58:59;;;;;;;35.60;28.42;;;17.80;99.90;;;;;;5013511;28;20084;-53
2021/09/16 04:01:25;;;;;;;39.15;30.13;;;17.70;99.90;;;;;;5020023;28;20041;-53
2021/09/16 04:03:50;;;;;;;36.35;30.50;;;17.60;99.90;;;;;;5027948;28;20042;-56
2021/09/16 04:06:16;;;;;;;38.72;30.63;;;17.70;99.90;;;;;;5013144;28;20045;-57
2021/09/16 04:08:41;;;;;;;35.10;29.08;;;17.80;99.90;;;;;;5012489;28;20037;-54
2021/09/16 04:11:07;;;;;;;42.00;31.75;;;17.90;99.90;;;;;;5012960;28;20037;-53
2021/09/16 04:13:33;;;;;;;34.63;27.80;;;17.80;99.90;;;;;;5012986;28;20022;-55
2021/09/16 04:15:58;;;;;;;35.60;28.88;;;18.00;99.90;;;;;;5015535;28;20033;-54
2021/09/16 04:18:24;;;;;;;32.30;26.20;;;17.90;99.90;;;;;;5016563;28;20029;-53
2021/09/16 04:20:50;;;;;;;30.25;26.05;;;18.00;99.90;;;;;;5016897;28;20034;-51
2021/09/16 04:23:15;;;;;;;27.90;24.75;;;18.00;99.90;;;;;;5016701;28;20038;-55
2021/09/16 04:25:41;;;;;;;32.13;26.92;;;17.90;99.90;;;;;;5016324;28;20034;-53
2021/09/16 04:28:06;;;;;;;33.45;26.25;;;17.90;99.90;;;;;;5016558;28;20065;-59
2021/09/16 04:30:32;;;;;;;30.52;26.60;;;18.00;99.90;;;;;;5016714;28;20084;-56
2021/09/16 04:32:57;;;;;;;27.15;23.08;;;18.00;99.90;;;;;;5016273;28;20041;-57
2021/09/16 04:35:23;;;;;;;30.60;24.85;;;18.00;99.90;;;;;;5016504;28;20029;-54
2021/09/16 04:37:49;;;;;;;29.38;22.58;;;18.00;99.90;;;;;;5027026;28;20033;-57
2021/09/16 04:40:14;;;;;;;27.15;23.25;;;17.90;99.90;;;;;;5036180;28;20052;-55
2021/09/16 04:42:40;;;;;;;28.73;22.88;;;18.00;99.90;;;;;;5035702;28;20041;-52
2021/09/16 04:45:07;;;;;;;28.63;21.08;;;18.00;99.90;;;;;;5035806;28;20045;-54
2021/09/16 04:47:32;;;;;;;19.70;15.27;;;17.90;99.90;;;;;;5036103;28;20507;-56
2021/09/16 04:49:58;;;;;;;20.73;16.80;;;17.90;99.90;;;;;;5036300;28;20037;-55
2021/09/16 04:52:25;;;;;;;20.50;17.30;;;17.80;99.90;;;;;;5035451;28;20040;-54
2021/09/16 04:54:51;;;;;;;20.23;16.15;;;17.70;99.90;;;;;;5036397;28;20026;-52
2021/09/16 04:57:17;;;;;;;19.02;14.50;;;17.60;99.90;;;;;;5035999;28;20437;-56
2021/09/16 04:59:42;;;;;;;19.15;14.93;;;17.70;99.90;;;;;;5035737;28;20038;-55
2021/09/16 05:02:08;;;;;;;19.83;15.52;;;17.50;99.90;;;;;;5033867;28;20037;-56
2021/09/16 05:04:33;;;;;;;15.13;12.57;;;17.60;99.90;;;;;;5024873;28;20095;-57
2021/09/16 05:06:59;;;;;;;16.05;13.15;;;17.70;99.90;;;;;;5016122;28;20041;-56
2021/09/16 05:09:25;;;;;;;15.65;12.18;;;17.80;99.90;;;;;;5016229;28;20113;-55
2021/09/16 05:11:50;;;;;;;16.70;12.60;;;17.80;99.90;;;;;;5015401;28;20030;-55
2021/09/16 05:14:16;;;;;;;14.30;12.65;;;17.80;99.90;;;;;;5020623;28;20018;-56
2021/09/16 05:16:42;;;;;;;13.27;11.82;;;17.80;99.90;;;;;;5015505;28;20045;-57
2021/09/16 05:19:08;;;;;;;16.90;11.63;;;17.80;99.90;;;;;;5016204;28;20041;-57
2021/09/16 05:21:34;;;;;;;11.65;10.45;;;17.90;99.90;;;;;;5015314;28;20037;-56
2021/09/16 05:23:59;;;;;;;11.93;9.75;;;17.80;99.90;;;;;;5014320;28;20068;-54
2021/09/16 05:26:25;;;;;;;11.60;9.20;;;17.80;99.90;;;;;;5015509;28;20042;-56
2021/09/16 05:28:50;;;;;;;11.40;10.27;;;17.80;99.90;;;;;;5015323;28;20029;-52
2021/09/16 05:31:16;;;;;;;13.20;11.23;;;17.90;99.90;;;;;;5025453;28;20040;-56
2021/09/16 05:33:42;;;;;;;11.05;9.02;;;17.70;99.90;;;;;;5034873;28;20037;-57
2021/09/16 05:36:07;;;;;;;12.75;8.65;;;17.80;99.90;;;;;;5034095;28;20026;-50
2021/09/16 05:38:33;;;;;;;10.75;8.88;;;18.00;99.90;;;;;;5035592;28;20458;-54
2021/09/16 05:40:58;;;;;;;11.75;9.63;;;18.00;99.90;;;;;;5035492;28;20547;-56
2021/09/16 05:43:24;;;;;;;15.32;10.15;;;18.00;99.90;;;;;;5034768;28;20038;-59
2021/09/16 05:45:50;;;;;;;13.40;9.88;;;18.00;99.90;;;;;;5035210;28;20060;-55
2021/09/16 05:48:16;;;;;;;13.75;9.35;;;17.70;99.90;;;;;;5033494;28;20037;-55
2021/09/16 05:50:41;;;;;;;11.38;9.65;;;17.80;99.90;;;;;;5032400;28;20025;-54
2021/09/16 05:53:08;;;;;;;11.07;9.80;;;17.80;99.90;;;;;;5034816;28;20444;-53
2021/09/16 05:55:38;;;;;;;12.18;9.32;;;17.80;99.90;;;;;;5034968;28;20477;-54
2021/09/16 05:58:03;;;;;;;10.32;8.60;;;17.80;99.90;;;;;;5034679;28;20061;-56
2021/09/16 06:00:29;;;;;;;10.57;8.93;;;17.80;99.90;;;;;;5035144;28;20511;-57
2021/09/16 06:02:55;;;;;;;11.98;8.15;;;17.90;99.90;;;;;;5034753;28;20092;-59
2021/09/16 06:05:20;;;;;;;12.20;9.20;;;18.00;99.90;;;;;;5017937;28;20045;-55
2021/09/16 06:07:46;;;;;;;9.85;8.80;;;17.90;99.90;;;;;;5015205;28;20040;-52
2021/09/16 06:10:11;;;;;;;10.50;8.85;;;18.00;99.90;;;;;;5015316;28;20536;-55
2021/09/16 06:12:37;;;;;;;10.60;8.93;;;17.90;99.90;;;;;;5015319;28;20057;-59
2021/09/16 06:15:04;;;;;;;11.07;8.60;;;17.80;99.90;;;;;;5015432;28;20038;-57
2021/09/16 06:17:29;;;;;;;12.63;8.73;;;17.90;99.90;;;;;;4997438;28;20045;-55
2021/09/16 06:19:55;;;;;;;9.18;8.02;;;17.90;99.90;;;;;;5014737;28;20041;-53
2021/09/16 06:22:20;;;;;;;11.15;8.88;;;18.00;99.90;;;;;;5015059;28;20026;-55
2021/09/16 06:24:46;;;;;;;10.13;8.13;;;18.10;99.90;;;;;;5016192;28;20127;-56
2021/09/16 06:27:12;;;;;;;11.30;8.25;;;18.10;99.90;;;;;;5015217;28;20037;-56
2021/09/16 06:29:37;;;;;;;10.38;8.80;;;18.00;99.90;;;;;;5014439;28;20034;-56
2021/09/16 06:32:04;;;;;;;9.65;8.20;;;18.10;99.90;;;;;;5007265;28;20026;-58
2021/09/16 06:34:30;;;;;;;9.23;7.80;;;18.20;99.90;;;;;;5012962;28;20029;-57
2021/09/16 06:36:55;;;;;;;11.90;8.48;;;18.30;99.90;;;;;;5014234;28;20037;-60
2021/09/16 06:39:21;;;;;;;11.45;9.20;;;18.30;99.90;;;;;;5013677;28;20548;-54
2021/09/16 06:41:46;;;;;;;12.07;8.48;;;18.40;99.90;;;;;;5014076;28;20046;-56
2021/09/16 06:44:12;;;;;;;12.07;8.38;;;18.40;99.90;;;;;;5012883;28;20041;-54
2021/09/16 06:46:38;;;;;;;10.63;8.80;;;18.50;99.90;;;;;;5011702;28;20045;-59
2021/09/16 06:49:03;;;;;;;11.07;8.50;;;18.50;99.90;;;;;;5014176;28;20375;-54
2021/09/16 06:51:29;;;;;;;9.88;8.77;;;18.50;99.90;;;;;;5015168;28;20029;-52
2021/09/16 06:53:55;;;;;;;9.85;8.85;;;18.50;99.90;;;;;;5013688;28;20037;-52
2021/09/16 06:56:20;;;;;;;12.75;9.23;;;18.50;99.90;;;;;;5015134;28;20033;-57
2021/09/16 06:58:46;;;;;;;13.30;9.20;;;18.60;99.90;;;;;;5014492;28;20445;-66
2021/09/16 07:01:11;;;;;;;12.32;9.43;;;18.60;99.90;;;;;;5007388;28;20466;-56
2021/09/16 07:03:37;;;;;;;10.43;8.25;;;18.60;99.90;;;;;;5002111;28;20030;-54
2021/09/16 07:06:02;;;;;;;12.43;8.63;;;18.60;99.90;;;;;;4995073;28;20537;-56
2021/09/16 07:08:28;;;;;;;10.40;9.25;;;18.70;99.90;;;;;;5032636;28;20044;-57
2021/09/16 07:10:54;;;;;;;10.77;8.98;;;18.70;99.90;;;;;;5016919;28;20112;-52
2021/09/16 07:13:19;;;;;;;11.98;9.45;;;18.80;99.90;;;;;;5023335;28;20034;-53
2021/09/16 07:15:45;;;;;;;10.85;9.00;;;18.80;99.90;;;;;;5002268;28;20038;-56
2021/09/16 07:18:10;;;;;;;10.55;9.35;;;18.80;99.90;;;;;;5014155;28;20065;-57
2021/09/16 07:20:36;;;;;;;12.35;10.10;;;18.90;99.90;;;;;;5012565;28;20037;-54
2021/09/16 07:23:02;;;;;;;13.23;10.38;;;18.80;99.90;;;;;;5006972;28;20482;-53
2021/09/16 07:25:27;;;;;;;12.25;9.88;;;18.70;99.90;;;;;;4999790;28;20041;-55
2021/09/16 07:27:53;;;;;;;10.95;9.60;;;18.60;99.90;;;;;;4993842;28;20482;-56
2021/09/16 07:30:19;;;;;;;11.65;10.43;;;18.80;99.90;;;;;;5005199;28;20057;-56
2021/09/16 07:32:44;;;;;;;16.17;11.00;;;18.90;99.90;;;;;;5032838;28;20025;-53
2021/09/16 07:35:10;;;;;;;12.43;10.32;;;18.70;99.90;;;;;;5033230;28;20532;-54
2021/09/16 07:37:36;;;;;;;10.27;8.40;;;18.90;99.90;;;;;;5031526;28;20140;-54
2021/09/16 07:40:03;;;;;;;14.35;10.20;;;19.00;99.30;;;;;;5032907;28;20038;-58
2021/09/16 07:42:28;;;;;;;12.23;9.65;;;19.10;98.90;;;;;;5032816;28;20026;-51
2021/09/16 07:44:54;;;;;;;10.07;7.85;;;19.10;98.90;;;;;;5015414;28;20050;-50
2021/09/16 07:47:20;;;;;;;8.75;7.85;;;19.00;98.30;;;;;;5012624;28;20044;-58
2021/09/16 07:49:46;;;;;;;8.05;6.90;;;18.50;98.80;;;;;;5011422;28;20030;-59
2021/09/16 07:52:12;;;;;;;9.48;6.80;;;18.30;98.90;;;;;;5012905;28;20050;-58
2021/09/16 07:54:38;;;;;;;8.20;5.85;;;18.30;98.70;;;;;;5013485;28;20052;-57
2021/09/16 07:57:04;;;;;;;9.05;5.78;;;18.20;98.50;;;;;;5013079;28;20436;-58
2021/09/16 07:59:30;;;;;;;7.25;5.25;;;18.10;98.40;;;;;;5013402;28;20042;-55
2021/09/16 08:01:56;;;;;;;9.52;4.95;;;18.00;98.50;;;;;;5013008;28;20041;-56
2021/09/16 08:04:22;;;;;;;7.80;4.75;;;18.10;98.50;;;;;;5009447;28;20034;-57
2021/09/16 08:06:47;;;;;;;6.25;4.00;;;18.20;98.40;;;;;;4994531;28;20479;-53
2021/09/16 08:09:13;;;;;;;7.32;4.18;;;18.10;98.20;;;;;;4995457;28;20042;-54
2021/09/16 08:11:41;;;;;;;5.20;3.25;;;18.10;98.10;;;;;;4995619;28;20113;-56
2021/09/16 08:14:07;;;;;;;8.63;3.47;;;17.90;97.40;;;;;;5002229;28;20033;-53
2021/09/16 08:16:33;;;;;;;5.05;3.35;;;17.90;97.30;;;;;;5013979;28;20041;-53
2021/09/16 08:18:59;;;;;;;4.85;3.03;;;18.00;97.80;;;;;;5013652;28;20042;-54
2021/09/16 08:21:27;;;;;;;4.35;3.40;;;18.20;97.50;;;;;;5013050;28;20038;-56
2021/09/16 08:23:52;;;;;;;6.72;3.40;;;18.40;97.20;;;;;;5013165;28;20034;-57
2021/09/16 08:26:18;;;;;;;6.55;4.05;;;18.60;97.00;;;;;;5013038;28;20125;-58
2021/09/16 08:28:44;;;;;;;4.80;3.65;;;18.60;97.00;;;;;;5012819;28;20057;-53
2021/09/16 08:31:09;;;;;;;4.78;3.20;;;18.60;96.90;;;;;;5013484;28;20034;-57
2021/09/16 08:33:35;;;;;;;7.22;3.50;;;18.60;96.80;;;;;;5012942;28;20046;-54
2021/09/16 08:36:01;;;;;;;6.60;3.65;;;18.40;96.80;;;;;;5014089;28;20042;-54
2021/09/16 08:38:27;;;;;;;6.22;3.85;;;18.10;96.80;;;;;;5012575;28;20030;-57
2021/09/16 08:40:52;;;;;;;7.07;3.65;;;18.20;96.80;;;;;;5011814;28;20034;-56
2021/09/16 08:43:27;;;;;;;6.57;3.42;;;18.20;97.00;;;;;;5012622;28;20465;-55
2021/09/16 08:45:53;;;;;;;8.73;3.42;;;18.20;96.50;;;;;;5012645;28;20042;-55
2021/09/16 08:48:19;;;;;;;5.93;3.20;;;18.20;96.80;;;;;;5012593;28;20030;-55
2021/09/16 08:50:45;;;;;;;7.30;3.53;;;18.10;96.80;;;;;;5012816;28;20033;-54
2021/09/16 08:53:16;;;;;;;8.65;3.38;;;18.00;97.00;;;;;;5012136;28;20041;-52
2021/09/16 08:55:43;;;;;;;7.05;3.30;;;18.10;96.60;;;;;;5013033;28;20065;-52
2021/09/16 08:58:11;;;;;;;4.93;3.20;;;18.20;96.50;;;;;;5013052;28;20034;-58
2021/09/16 09:00:37;;;;;;;4.75;3.13;;;18.20;96.20;;;;;;5011590;28;20401;-55
2021/09/16 09:03:04;;;;;;;7.70;3.08;;;18.30;96.40;;;;;;5016539;28;20121;-53
2021/09/16 09:05:30;;;;;;;6.85;3.20;;;18.20;96.50;;;;;;5015976;28;20113;-57
2021/09/16 09:07:58;;;;;;;5.57;3.47;;;18.10;96.70;;;;;;5017933;28;20062;-57
2021/09/16 09:10:59;;;;;;;5.30;3.53;;;18.30;96.70;;;;;;5017173;28;20478;-57
2021/09/16 09:13:27;;;;;;;8.02;3.58;;;18.40;96.70;;;;;;4973059;28;20038;-56
2021/09/16 09:16:04;;;;;;;4.60;2.90;;;18.50;96.20;;;;;;5015830;28;20084;-59
2021/09/16 09:18:51;;;;;;;8.90;3.83;;;18.30;96.60;;;;;;5015479;28;20497;-59
2021/09/16 09:21:18;;;;;;;9.00;3.65;;;18.30;96.70;;;;;;5015559;28;20421;-56
2021/09/16 09:23:54;;;;;;;7.07;3.58;;;18.30;96.20;;;;;;5015158;28;20107;-56
2021/09/16 09:26:27;;;;;;;5.25;2.95;;;18.40;96.30;;;;;;5015417;28;20042;-59
2021/09/16 09:29:08;;;;;;;8.27;4.13;;;18.20;96.70;;;;;;5015570;28;20084;-56
2021/09/16 09:31:52;;;;;;;6.13;3.28;;;18.50;96.30;;;;;;5016718;28;20018;-61
2021/09/16 09:34:21;;;;;;;19.40;4.03;;;18.80;95.80;;;;;;5015756;28;20053;-55
2021/09/16 09:36:47;;;;;;;5.53;2.95;;;18.90;95.80;;;;;;5014227;28;20100;-56
2021/09/16 09:39:12;;;;;;;6.25;2.97;;;19.10;95.20;;;;;;5015617;28;20042;-56
2021/09/16 09:41:38;;;;;;;8.90;2.88;;;19.30;94.90;;;;;;5015054;28;20125;-57
2021/09/16 09:44:13;;;;;;;6.00;3.00;;;19.30;94.70;;;;;;5015056;28;20121;-58
2021/09/16 09:46:42;;;;;;;6.18;3.53;;;19.30;94.80;;;;;;5015501;28;20164;-59
2021/09/16 09:49:11;;;;;;;6.85;3.30;;;19.20;94.90;;;;;;5014845;28;20030;-57
2021/09/16 09:51:36;;;;;;;4.93;3.05;;;19.30;94.80;;;;;;5015151;28;20117;-58
2021/09/16 09:54:23;;;;;;;4.65;3.22;;;19.20;94.80;;;;;;5015029;28;20120;-53
2021/09/16 09:57:11;;;;;;;8.63;3.15;;;18.90;95.20;;;;;;5014967;28;20033;-60
2021/09/16 09:59:54;;;;;;;6.93;3.58;;;19.00;95.10;;;;;;5013480;28;20034;-60
2021/09/16 10:02:21;;;;;;;10.32;3.50;;;19.00;94.90;;;;;;5014051;28;20057;-57
2021/09/16 10:04:49;;;;;;;6.30;3.75;;;18.80;95.60;;;;;;5014569;28;20430;-61
2021/09/16 10:07:36;;;;;;;3.38;2.78;;;18.80;95.60;;;;;;5014727;28;20057;-62
2021/09/16 10:10:05;;;;;;;6.53;3.50;;;18.90;95.80;;;;;;5015220;28;20049;-60
2021/09/16 10:12:31;;;;;;;5.60;3.28;;;18.90;95.70;;;;;;5014484;28;20041;-57
2021/09/16 10:14:56;;;;;;;6.43;3.13;;;18.60;96.40;;;;;;5013403;28;20022;-59
2021/09/16 10:17:23;;;;;;;7.10;4.10;;;18.70;96.40;;;;;;5014588;28;20117;-60
2021/09/16 10:19:48;;;;;;;6.40;3.67;;;18.80;96.50;;;;;;5014431;28;20077;-59
2021/09/16 10:22:15;;;;;;;5.95;3.15;;;18.80;96.80;;;;;;5015461;28;20393;-61
2021/09/16 10:24:41;;;;;;;3.70;3.13;;;18.60;97.00;;;;;;5014516;28;20109;-62
2021/09/16 10:27:27;;;;;;;7.45;3.92;;;18.70;96.80;;;;;;5014490;28;20033;-61
2021/09/16 10:29:52;;;;;;;6.82;3.72;;;18.60;97.10;;;;;;5013983;28;20053;-59
2021/09/16 10:32:18;;;;;;;7.22;4.35;;;18.80;96.90;;;;;;5014130;28;20481;-59
2021/09/16 10:34:45;;;;;;;7.05;5.00;;;18.80;96.10;;;;;;5014344;28;20482;-58
2021/09/16 10:37:13;;;;;;;5.60;4.97;;;18.70;94.60;;;;;;5014106;28;20022;-60
2021/09/16 10:39:40;;;;;;;8.35;5.25;;;18.80;93.40;;;;;;5014512;28;20397;-60
2021/09/16 10:42:08;;;;;;;8.30;5.50;;;18.70;92.90;;;;;;5014403;28;20065;-58
2021/09/16 10:44:34;;;;;;;7.43;4.65;;;18.80;93.10;;;;;;5014271;28;20091;-60
2021/09/16 10:47:17;;;;;;;5.53;4.65;;;19.00;92.70;;;;;;5014163;28;20265;-57
2021/09/16 10:49:43;;;;;;;7.10;4.35;;;19.10;92.40;;;;;;5015284;28;20054;-60
2021/09/16 10:52:09;;;;;;;7.18;4.45;;;19.30;92.20;;;;;;5013011;28;20033;-59
2021/09/16 10:54:42;;;;;;;10.27;5.07;;;19.00;92.70;;;;;;5013888;28;20030;-61
2021/09/16 10:57:35;;;;;;;5.43;4.10;;;19.20;92.60;;;;;;5013863;28;20068;-59
2021/09/16 11:00:19;;;;;;;6.00;4.20;;;19.20;92.80;;;;;;5013435;28;20057;-60
2021/09/16 11:02:47;;;;;;;5.75;4.00;;;19.20;92.50;;;;;;5013681;28;20044;-59
2021/09/16 11:05:20;;;;;;;7.82;4.10;;;19.20;92.00;;;;;;5013718;28;20089;-60
2021/09/16 11:07:49;;;;;;;7.18;3.33;;;19.30;91.90;;;;;;5013544;28;20366;-60
2021/09/16 11:10:14;;;;;;;6.15;3.35;;;19.30;92.00;;;;;;5013737;28;20129;-60
2021/09/16 11:12:49;;;;;;;5.05;3.28;;;19.50;91.70;;;;;;5013325;28;20148;-60
2021/09/16 11:15:25;;;;;;;4.13;2.90;;;19.50;91.30;;;;;;5013522;28;20030;-61
2021/09/16 11:17:51;;;;;;;8.30;2.72;;;19.20;91.90;;;;;;5013041;28;20034;-57
2021/09/16 11:20:20;;;;;;;9.27;3.85;;;19.60;91.50;;;;;;5012776;28;20036;-57
2021/09/16 11:22:50;;;;;;;3.45;2.78;;;19.80;91.10;;;;;;5014391;28;20034;-60
2021/09/16 11:25:16;;;;;;;5.15;2.70;;;19.70;91.50;;;;;;5012759;28;20048;-61
2021/09/16 11:27:41;;;;;;;4.35;2.70;;;19.80;91.20;;;;;;5012996;28;20030;-58
2021/09/16 11:30:18;;;;;;;3.30;2.70;;;19.90;91.10;;;;;;5013610;28;20034;-56
2021/09/16 11:32:44;;;;;;;4.00;2.72;;;19.70;90.70;;;;;;5012882;28;20108;-62
2021/09/16 11:35:12;;;;;;;8.48;3.10;;;19.70;90.40;;;;;;5013522;28;20561;-60
2021/09/16 11:37:50;;;;;;;3.40;2.85;;;19.70;90.10;;;;;;5012257;28;20041;-59
2021/09/16 11:40:15;;;;;;;9.77;5.00;;;19.60;91.00;;;;;;5013897;28;20493;-59
2021/09/16 11:42:48;;;;;;;22.63;5.57;;;19.80;90.30;;;;;;5012986;28;20041;-61
2021/09/16 11:45:47;;;;;;;5.03;3.22;;;19.80;91.00;;;;;;5012202;28;20029;-62
2021/09/16 11:48:22;;;;;;;5.72;3.10;;;20.00;90.50;;;;;;5012457;28;20042;-59
2021/09/16 11:50:49;;;;;;;10.63;3.47;;;20.00;90.30;;;;;;5012639;28;20041;-59
2021/09/16 11:53:21;;;;;;;5.35;3.15;;;20.40;90.10;;;;;;5012307;28;20032;-61
2021/09/16 11:55:50;;;;;;;4.35;2.70;;;20.20;89.60;;;;;;5012911;28;20025;-61
2021/09/16 11:58:23;;;;;;;6.72;3.13;;;20.30;89.20;;;;;;5012612;28;20038;-60
2021/09/16 12:00:54;;;;;;;7.07;3.30;;;20.30;89.60;;;;;;5012545;28;20042;-60
2021/09/16 12:03:34;;;;;;;4.45;2.63;;;20.10;90.50;;;;;;5012899;28;20079;-59
2021/09/16 12:06:05;;;;;;;4.45;2.50;;;20.10;90.30;;;;;;5013100;28;20061;-61
2021/09/16 12:08:33;;;;;;;3.63;2.50;;;20.20;90.20;;;;;;5013173;28;20064;-58
2021/09/16 12:11:01;;;;;;;4.45;2.10;;;20.30;90.00;;;;;;5012541;28;20026;-58
2021/09/16 12:13:33;;;;;;;4.97;2.30;;;20.30;89.50;;;;;;5012617;28;20478;-59
2021/09/16 12:16:08;;;;;;;3.50;2.40;;;20.10;89.80;;;;;;5012190;28;20477;-59
2021/09/16 12:18:35;;;;;;;4.47;2.55;;;20.00;90.20;;;;;;5012805;28;20485;-59
2021/09/16 12:21:05;;;;;;;3.80;2.60;;;20.00;90.30;;;;;;5012586;28;20030;-58
2021/09/16 12:23:32;;;;;;;5.63;2.65;;;20.00;90.80;;;;;;5010606;28;20083;-60
2021/09/16 12:26:15;;;;;;;3.03;2.15;;;20.20;89.10;;;;;;5012169;28;20056;-60
2021/09/16 12:29:00;;;;;;;4.32;2.25;;;20.30;88.90;;;;;;5012291;28;20030;-61
2021/09/16 12:31:59;;;;;;;7.43;2.70;;;20.30;89.60;;;;;;5012497;28;20038;-60
2021/09/16 12:34:33;;;;;;;5.45;2.50;;;20.20;89.80;;;;;;5007166;28;20092;-60
2021/09/16 12:37:08;;;;;;;6.20;2.90;;;20.50;90.20;;;;;;5015209;28;20118;-60